sensor_id;sensor_type;location;lat;lon;timestamp;temperature;humidity
21193;DHT22;10754;51.106;7.164;2023-09-19T00:01:53;20.80;1.00
21193;DHT22;10754;51.106;7.164;2023-09-19T00:04:18;20.80;1.00
21193;DHT22;10754;51.106;7.164;2023-09-19T00:06:48;20.70;1.00
21193;DHT22;10754;51.106;7.164;2023-09-19T00:09:15;20.80;1.00
21193;DHT22;10754;51.106;7.164;2023-09-19T00:11:40;20.80;1.00
21193;DHT22;10754;51.106;7.164;2023-09-19T00:14:06;20.60;1.00
21193;DHT22;10754;51.106;7.164;2023-09-19T00:16:34;20.60;1.00
21193;DHT22;10754;51.106;7.164;2023-09-19T00:19:00;20.60;1.00
21193;DHT22;10754;51.106;7.164;2023-09-19T00:21:26;20.60;1.00
21193;DHT22;10754;51.106;7.164;2023-09-19T00:23:51;20.70;1.00
21193;DHT22;10754;51.106;7.164;2023-09-19T00:26:17;20.70;1.00
21193;DHT22;10754;51.106;7.164;2023-09-19T00:28:44;20.70;1.00
21193;DHT22;10754;51.106;7.164;2023-09-19T00:31:09;20.40;1.00
21193;DHT22;10754;51.106;7.164;2023-09-19T00:33:35;20.50;1.00
21193;DHT22;10754;51.106;7.164;2023-09-19T00:36:00;20.60;1.00
21193;DHT22;10754;51.106;7.164;2023-09-19T00:38:29;20.70;1.00
21193;DHT22;10754;51.106;7.164;2023-09-19T00:40:55;20.70;1.00
21193;DHT22;10754;51.106;7.164;2023-09-19T00:43:22;20.70;1.00
21193;DHT22;10754;51.106;7.164;2023-09-19T00:45:50;20.70;1.00
21193;DHT22;10754;51.106;7.164;2023-09-19T00:48:20;20.60;1.00
21193;DHT22;10754;51.106;7.164;2023-09-19T00:50:47;20.70;1.00
21193;DHT22;10754;51.106;7.164;2023-09-19T00:53:17;20.70;1.00
21193;DHT22;10754;51.106;7.164;2023-09-19T00:55:45;20.80;1.00
21193;DHT22;10754;51.106;7.164;2023-09-19T00:58:11;20.70;1.00
21193;DHT22;10754;51.106;7.164;2023-09-19T01:00:37;20.80;1.00
21193;DHT22;10754;51.106;7.164;2023-09-19T01:03:03;20.80;1.00
21193;DHT22;10754;51.106;7.164;2023-09-19T01:05:29;20.80;1.00
21193;DHT22;10754;51.106;7.164;2023-09-19T01:07:55;20.80;1.00
21193;DHT22;10754;51.106;7.164;2023-09-19T01:10:21;20.40;1.00
21193;DHT22;10754;51.106;7.164;2023-09-19T01:15:39;20.50;1.00
21193;DHT22;10754;51.106;7.164;2023-09-19T01:20:57;20.50;1.00
21193;DHT22;10754;51.106;7.164;2023-09-19T01:23:34;20.50;1.00
21193;DHT22;10754;51.106;7.164;2023-09-19T01:26:25;20.50;1.00
21193;DHT22;10754;51.106;7.164;2023-09-19T01:29:34;20.50;1.00
21193;DHT22;10754;51.106;7.164;2023-09-19T01:32:05;20.60;1.00
21193;DHT22;10754;51.106;7.164;2023-09-19T01:34:51;20.50;1.00
21193;DHT22;10754;51.106;7.164;2023-09-19T01:37:19;20.60;1.00
21193;DHT22;10754;51.106;7.164;2023-09-19T01:39:58;20.40;1.00
21193;DHT22;10754;51.106;7.164;2023-09-19T01:42:37;20.50;1.00
21193;DHT22;10754;51.106;7.164;2023-09-19T01:45:13;20.60;1.00
21193;DHT22;10754;51.106;7.164;2023-09-19T01:47:48;20.60;1.00
21193;DHT22;10754;51.106;7.164;2023-09-19T01:50:42;20.60;1.00
21193;DHT22;10754;51.106;7.164;2023-09-19T01:53:19;20.60;1.00
21193;DHT22;10754;51.106;7.164;2023-09-19T01:55:48;20.70;1.00
21193;DHT22;10754;51.106;7.164;2023-09-19T01:58:20;20.70;1.00
21193;DHT22;10754;51.106;7.164;2023-09-19T02:00:48;20.70;1.00
21193;DHT22;10754;51.106;7.164;2023-09-19T02:03:17;20.60;1.00
21193;DHT22;10754;51.106;7.164;2023-09-19T02:05:49;20.60;1.00
21193;DHT22;10754;51.106;7.164;2023-09-19T02:08:17;20.50;1.00
21193;DHT22;10754;51.106;7.164;2023-09-19T02:10:44;20.50;1.00
21193;DHT22;10754;51.106;7.164;2023-09-19T02:13:15;20.60;1.00
21193;DHT22;10754;51.106;7.164;2023-09-19T02:15:42;20.60;1.00
21193;DHT22;10754;51.106;7.164;2023-09-19T02:18:09;20.70;1.00
21193;DHT22;10754;51.106;7.164;2023-09-19T02:20:35;20.70;1.00
21193;DHT22;10754;51.106;7.164;2023-09-19T02:23:00;20.60;1.00
21193;DHT22;10754;51.106;7.164;2023-09-19T02:25:27;20.50;1.00
21193;DHT22;10754;51.106;7.164;2023-09-19T02:27:53;20.60;1.00
21193;DHT22;10754;51.106;7.164;2023-09-19T02:30:19;20.60;1.00
21193;DHT22;10754;51.106;7.164;2023-09-19T02:32:48;20.50;1.00
21193;DHT22;10754;51.106;7.164;2023-09-19T02:35:15;20.40;1.00
21193;DHT22;10754;51.106;7.164;2023-09-19T02:37:41;20.40;1.00
21193;DHT22;10754;51.106;7.164;2023-09-19T02:40:07;20.30;1.00
21193;DHT22;10754;51.106;7.164;2023-09-19T02:42:47;20.30;1.00
21193;DHT22;10754;51.106;7.164;2023-09-19T02:45:16;20.30;1.00
21193;DHT22;10754;51.106;7.164;2023-09-19T02:47:43;20.00;1.00
21193;DHT22;10754;51.106;7.164;2023-09-19T02:50:09;19.90;1.00
21193;DHT22;10754;51.106;7.164;2023-09-19T02:52:41;20.00;1.00
21193;DHT22;10754;51.106;7.164;2023-09-19T02:55:08;20.10;1.00
21193;DHT22;10754;51.106;7.164;2023-09-19T02:57:35;20.10;1.00
21193;DHT22;10754;51.106;7.164;2023-09-19T03:00:03;20.20;1.00
21193;DHT22;10754;51.106;7.164;2023-09-19T03:02:29;20.30;1.00
21193;DHT22;10754;51.106;7.164;2023-09-19T03:04:58;20.30;1.00
21193;DHT22;10754;51.106;7.164;2023-09-19T03:07:26;20.30;1.00
21193;DHT22;10754;51.106;7.164;2023-09-19T03:09:51;20.00;1.00
21193;DHT22;10754;51.106;7.164;2023-09-19T03:12:18;19.90;1.00
21193;DHT22;10754;51.106;7.164;2023-09-19T03:14:43;20.00;1.00
21193;DHT22;10754;51.106;7.164;2023-09-19T03:17:09;20.00;1.00
21193;DHT22;10754;51.106;7.164;2023-09-19T03:19:35;20.10;1.00
21193;DHT22;10754;51.106;7.164;2023-09-19T03:22:00;19.90;1.00
21193;DHT22;10754;51.106;7.164;2023-09-19T03:24:26;20.00;1.00
21193;DHT22;10754;51.106;7.164;2023-09-19T03:26:51;19.90;1.00
21193;DHT22;10754;51.106;7.164;2023-09-19T03:29:17;20.00;1.00
21193;DHT22;10754;51.106;7.164;2023-09-19T03:31:43;19.90;1.00
21193;DHT22;10754;51.106;7.164;2023-09-19T03:34:09;20.00;1.00
21193;DHT22;10754;51.106;7.164;2023-09-19T03:36:35;19.90;1.00
21193;DHT22;10754;51.106;7.164;2023-09-19T03:39:01;19.70;1.00
21193;DHT22;10754;51.106;7.164;2023-09-19T03:41:30;19.70;1.00
21193;DHT22;10754;51.106;7.164;2023-09-19T03:43:56;19.70;1.00
21193;DHT22;10754;51.106;7.164;2023-09-19T03:46:22;19.70;1.00
21193;DHT22;10754;51.106;7.164;2023-09-19T03:48:47;19.80;1.00
21193;DHT22;10754;51.106;7.164;2023-09-19T03:51:13;19.80;1.00
21193;DHT22;10754;51.106;7.164;2023-09-19T03:53:38;19.90;1.00
21193;DHT22;10754;51.106;7.164;2023-09-19T03:56:04;19.80;1.00
21193;DHT22;10754;51.106;7.164;2023-09-19T03:58:29;19.80;1.00
21193;DHT22;10754;51.106;7.164;2023-09-19T04:00:56;19.80;1.00
21193;DHT22;10754;51.106;7.164;2023-09-19T04:03:21;19.80;1.00
21193;DHT22;10754;51.106;7.164;2023-09-19T04:05:47;19.80;1.00
21193;DHT22;10754;51.106;7.164;2023-09-19T04:08:13;19.70;1.00
21193;DHT22;10754;51.106;7.164;2023-09-19T04:10:42;19.80;1.00
21193;DHT22;10754;51.106;7.164;2023-09-19T04:13:07;19.90;1.00
21193;DHT22;10754;51.106;7.164;2023-09-19T04:15:33;20.00;1.00
21193;DHT22;10754;51.106;7.164;2023-09-19T04:17:58;19.90;1.00
21193;DHT22;10754;51.106;7.164;2023-09-19T04:20:24;19.80;1.00
21193;DHT22;10754;51.106;7.164;2023-09-19T04:22:49;19.90;1.00
21193;DHT22;10754;51.106;7.164;2023-09-19T04:25:15;19.80;1.00
21193;DHT22;10754;51.106;7.164;2023-09-19T04:27:40;19.90;1.00
21193;DHT22;10754;51.106;7.164;2023-09-19T04:30:07;19.90;1.00
21193;DHT22;10754;51.106;7.164;2023-09-19T04:32:40;19.80;1.00
21193;DHT22;10754;51.106;7.164;2023-09-19T04:35:10;19.80;1.00
21193;DHT22;10754;51.106;7.164;2023-09-19T04:37:44;19.80;1.00
21193;DHT22;10754;51.106;7.164;2023-09-19T04:40:10;20.00;1.00
21193;DHT22;10754;51.106;7.164;2023-09-19T04:42:38;19.90;1.00
21193;DHT22;10754;51.106;7.164;2023-09-19T04:45:04;20.00;1.00
21193;DHT22;10754;51.106;7.164;2023-09-19T04:47:30;19.90;1.00
21193;DHT22;10754;51.106;7.164;2023-09-19T04:49:55;19.90;1.00
21193;DHT22;10754;51.106;7.164;2023-09-19T04:52:23;19.80;1.00
21193;DHT22;10754;51.106;7.164;2023-09-19T04:54:49;19.90;1.00
21193;DHT22;10754;51.106;7.164;2023-09-19T04:57:14;19.90;1.00
21193;DHT22;10754;51.106;7.164;2023-09-19T04:59:41;20.00;1.00
21193;DHT22;10754;51.106;7.164;2023-09-19T05:02:07;19.90;1.00
21193;DHT22;10754;51.106;7.164;2023-09-19T05:04:33;19.90;1.00
21193;DHT22;10754;51.106;7.164;2023-09-19T05:06:59;19.70;1.00
21193;DHT22;10754;51.106;7.164;2023-09-19T05:09:26;19.70;1.00
21193;DHT22;10754;51.106;7.164;2023-09-19T05:11:52;19.70;1.00
21193;DHT22;10754;51.106;7.164;2023-09-19T05:14:18;19.60;1.00
21193;DHT22;10754;51.106;7.164;2023-09-19T05:16:44;19.70;1.00
21193;DHT22;10754;51.106;7.164;2023-09-19T05:19:09;19.70;1.00
21193;DHT22;10754;51.106;7.164;2023-09-19T05:21:37;19.70;1.00
21193;DHT22;10754;51.106;7.164;2023-09-19T05:24:05;19.50;1.00
21193;DHT22;10754;51.106;7.164;2023-09-19T05:26:32;19.50;1.00
21193;DHT22;10754;51.106;7.164;2023-09-19T05:28:57;19.40;1.00
21193;DHT22;10754;51.106;7.164;2023-09-19T05:31:23;19.50;1.00
21193;DHT22;10754;51.106;7.164;2023-09-19T05:33:50;19.40;1.00
21193;DHT22;10754;51.106;7.164;2023-09-19T05:36:16;19.30;1.00
21193;DHT22;10754;51.106;7.164;2023-09-19T05:38:42;19.40;1.00
21193;DHT22;10754;51.106;7.164;2023-09-19T05:41:09;19.50;1.00
21193;DHT22;10754;51.106;7.164;2023-09-19T05:43:35;19.40;1.00
21193;DHT22;10754;51.106;7.164;2023-09-19T05:46:03;19.60;1.00
21193;DHT22;10754;51.106;7.164;2023-09-19T05:48:28;19.40;1.00
21193;DHT22;10754;51.106;7.164;2023-09-19T05:50:54;19.50;1.00
21193;DHT22;10754;51.106;7.164;2023-09-19T05:53:19;19.20;1.00
21193;DHT22;10754;51.106;7.164;2023-09-19T05:55:45;19.30;1.00
21193;DHT22;10754;51.106;7.164;2023-09-19T05:58:11;19.10;1.00
21193;DHT22;10754;51.106;7.164;2023-09-19T06:00:39;19.30;1.00
21193;DHT22;10754;51.106;7.164;2023-09-19T06:03:07;19.50;1.00
21193;DHT22;10754;51.106;7.164;2023-09-19T06:05:33;19.40;1.00
21193;DHT22;10754;51.106;7.164;2023-09-19T06:07:59;19.40;1.00
21193;DHT22;10754;51.106;7.164;2023-09-19T06:10:26;19.50;1.00
21193;DHT22;10754;51.106;7.164;2023-09-19T06:12:53;19.50;1.00
21193;DHT22;10754;51.106;7.164;2023-09-19T06:15:20;19.20;1.00
21193;DHT22;10754;51.106;7.164;2023-09-19T06:17:51;19.50;1.00
21193;DHT22;10754;51.106;7.164;2023-09-19T06:20:20;19.50;1.00
21193;DHT22;10754;51.106;7.164;2023-09-19T06:22:48;19.30;1.00
21193;DHT22;10754;51.106;7.164;2023-09-19T06:25:14;19.40;1.00
21193;DHT22;10754;51.106;7.164;2023-09-19T06:27:49;19.30;1.00
21193;DHT22;10754;51.106;7.164;2023-09-19T06:30:17;19.40;1.00
21193;DHT22;10754;51.106;7.164;2023-09-19T06:32:44;19.60;1.00
21193;DHT22;10754;51.106;7.164;2023-09-19T06:35:13;19.50;1.00
21193;DHT22;10754;51.106;7.164;2023-09-19T06:37:40;19.60;1.00
21193;DHT22;10754;51.106;7.164;2023-09-19T06:40:11;19.80;1.00
21193;DHT22;10754;51.106;7.164;2023-09-19T06:42:41;19.60;1.00
21193;DHT22;10754;51.106;7.164;2023-09-19T06:45:07;19.40;1.00
21193;DHT22;10754;51.106;7.164;2023-09-19T06:47:33;19.70;1.00
21193;DHT22;10754;51.106;7.164;2023-09-19T06:49:58;19.80;1.00
21193;DHT22;10754;51.106;7.164;2023-09-19T06:52:24;19.50;1.00
21193;DHT22;10754;51.106;7.164;2023-09-19T06:54:53;19.60;1.00
21193;DHT22;10754;51.106;7.164;2023-09-19T06:57:18;19.60;1.00
21193;DHT22;10754;51.106;7.164;2023-09-19T06:59:45;19.50;1.00
21193;DHT22;10754;51.106;7.164;2023-09-19T07:02:11;19.70;1.00
21193;DHT22;10754;51.106;7.164;2023-09-19T07:04:36;19.80;1.00
21193;DHT22;10754;51.106;7.164;2023-09-19T07:07:01;19.70;1.00
21193;DHT22;10754;51.106;7.164;2023-09-19T07:09:27;19.70;1.00
21193;DHT22;10754;51.106;7.164;2023-09-19T07:11:53;20.20;99.90
21193;DHT22;10754;51.106;7.164;2023-09-19T07:14:19;19.90;1.00
21193;DHT22;10754;51.106;7.164;2023-09-19T07:16:45;19.60;1.00
21193;DHT22;10754;51.106;7.164;2023-09-19T07:19:10;19.70;1.00
21193;DHT22;10754;51.106;7.164;2023-09-19T07:21:36;19.90;1.00
21193;DHT22;10754;51.106;7.164;2023-09-19T07:24:04;19.80;1.00
21193;DHT22;10754;51.106;7.164;2023-09-19T07:26:30;19.70;1.00
21193;DHT22;10754;51.106;7.164;2023-09-19T07:28:56;19.70;1.00
21193;DHT22;10754;51.106;7.164;2023-09-19T07:31:23;19.90;1.00
21193;DHT22;10754;51.106;7.164;2023-09-19T07:33:49;20.10;1.00
21193;DHT22;10754;51.106;7.164;2023-09-19T07:36:14;20.10;1.00
21193;DHT22;10754;51.106;7.164;2023-09-19T07:38:41;20.10;99.90
21193;DHT22;10754;51.106;7.164;2023-09-19T07:41:07;20.00;1.00
21193;DHT22;10754;51.106;7.164;2023-09-19T07:43:35;20.10;1.00
21193;DHT22;10754;51.106;7.164;2023-09-19T07:46:07;20.10;1.00
21193;DHT22;10754;51.106;7.164;2023-09-19T07:48:34;19.80;1.00
21193;DHT22;10754;51.106;7.164;2023-09-19T07:51:05;19.70;1.00
21193;DHT22;10754;51.106;7.164;2023-09-19T07:53:31;19.90;1.00
21193;DHT22;10754;51.106;7.164;2023-09-19T07:56:07;19.90;1.00
21193;DHT22;10754;51.106;7.164;2023-09-19T07:58:33;19.90;1.00
21193;DHT22;10754;51.106;7.164;2023-09-19T08:01:04;20.00;1.00
21193;DHT22;10754;51.106;7.164;2023-09-19T08:03:29;19.80;1.00
21193;DHT22;10754;51.106;7.164;2023-09-19T08:05:56;19.90;1.00
21193;DHT22;10754;51.106;7.164;2023-09-19T08:08:23;20.10;1.00
21193;DHT22;10754;51.106;7.164;2023-09-19T08:10:56;19.90;1.00
21193;DHT22;10754;51.106;7.164;2023-09-19T08:13:25;20.00;1.00
21193;DHT22;10754;51.106;7.164;2023-09-19T08:15:51;20.20;1.00
21193;DHT22;10754;51.106;7.164;2023-09-19T08:18:20;20.10;1.00
21193;DHT22;10754;51.106;7.164;2023-09-19T08:20:52;20.00;1.00
21193;DHT22;10754;51.106;7.164;2023-09-19T08:23:18;20.10;1.00
21193;DHT22;10754;51.106;7.164;2023-09-19T08:25:46;20.40;1.00
21193;DHT22;10754;51.106;7.164;2023-09-19T08:28:11;20.40;1.40
21193;DHT22;10754;51.106;7.164;2023-09-19T08:30:39;20.30;1.00
21193;DHT22;10754;51.106;7.164;2023-09-19T08:33:06;20.30;1.00
21193;DHT22;10754;51.106;7.164;2023-09-19T08:35:33;20.40;1.00
21193;DHT22;10754;51.106;7.164;2023-09-19T08:37:59;20.40;1.00
21193;DHT22;10754;51.106;7.164;2023-09-19T08:40:30;20.60;99.90
21193;DHT22;10754;51.106;7.164;2023-09-19T08:42:58;20.60;99.90
21193;DHT22;10754;51.106;7.164;2023-09-19T08:45:25;20.40;1.00
21193;DHT22;10754;51.106;7.164;2023-09-19T08:50:31;20.30;1.00
21193;DHT22;10754;51.106;7.164;2023-09-19T08:53:01;20.20;1.00
21193;DHT22;10754;51.106;7.164;2023-09-19T08:55:31;20.60;1.00
21193;DHT22;10754;51.106;7.164;2023-09-19T08:58:01;20.50;1.00
21193;DHT22;10754;51.106;7.164;2023-09-19T09:00:28;20.50;1.00
21193;DHT22;10754;51.106;7.164;2023-09-19T09:02:56;20.70;1.00
21193;DHT22;10754;51.106;7.164;2023-09-19T09:05:23;20.90;99.90
21193;DHT22;10754;51.106;7.164;2023-09-19T09:07:50;21.10;99.90
21193;DHT22;10754;51.106;7.164;2023-09-19T09:10:22;21.00;99.90
21193;DHT22;10754;51.106;7.164;2023-09-19T09:12:52;21.10;99.90
21193;DHT22;10754;51.106;7.164;2023-09-19T09:15:21;21.40;99.90
21193;DHT22;10754;51.106;7.164;2023-09-19T09:17:48;21.30;99.90
21193;DHT22;10754;51.106;7.164;2023-09-19T09:20:16;21.10;99.90
21193;DHT22;10754;51.106;7.164;2023-09-19T09:22:51;20.80;99.90
21193;DHT22;10754;51.106;7.164;2023-09-19T09:25:17;20.90;99.90
21193;DHT22;10754;51.106;7.164;2023-09-19T09:27:45;20.80;99.90
21193;DHT22;10754;51.106;7.164;2023-09-19T09:30:34;20.80;1.40
21193;DHT22;10754;51.106;7.164;2023-09-19T09:33:10;20.80;99.90
21193;DHT22;10754;51.106;7.164;2023-09-19T09:35:49;21.50;99.90
21193;DHT22;10754;51.106;7.164;2023-09-19T09:38:19;21.30;99.90
21193;DHT22;10754;51.106;7.164;2023-09-19T09:40:51;22.00;99.90
21193;DHT22;10754;51.106;7.164;2023-09-19T09:43:30;22.00;99.90
21193;DHT22;10754;51.106;7.164;2023-09-19T09:46:10;21.70;99.90
21193;DHT22;10754;51.106;7.164;2023-09-19T09:51:40;21.70;99.90
21193;DHT22;10754;51.106;7.164;2023-09-19T09:54:17;21.80;99.90
21193;DHT22;10754;51.106;7.164;2023-09-19T09:56:59;21.80;99.90
21193;DHT22;10754;51.106;7.164;2023-09-19T10:02:19;21.90;99.90
21193;DHT22;10754;51.106;7.164;2023-09-19T10:04:54;21.90;99.90
21193;DHT22;10754;51.106;7.164;2023-09-19T10:07:29;22.50;99.90
21193;DHT22;10754;51.106;7.164;2023-09-19T10:10:05;22.60;99.90
21193;DHT22;10754;51.106;7.164;2023-09-19T10:12:46;22.70;99.90
21193;DHT22;10754;51.106;7.164;2023-09-19T10:15:15;22.50;99.90
21193;DHT22;10754;51.106;7.164;2023-09-19T10:17:43;22.40;99.90
21193;DHT22;10754;51.106;7.164;2023-09-19T10:20:13;22.30;99.90
21193;DHT22;10754;51.106;7.164;2023-09-19T10:22:59;22.20;99.90
21193;DHT22;10754;51.106;7.164;2023-09-19T10:25:26;22.20;99.90
21193;DHT22;10754;51.106;7.164;2023-09-19T10:28:02;22.20;99.90
21193;DHT22;10754;51.106;7.164;2023-09-19T10:30:32;22.20;99.90
21193;DHT22;10754;51.106;7.164;2023-09-19T10:33:03;22.20;99.90
21193;DHT22;10754;51.106;7.164;2023-09-19T10:35:29;22.40;99.90
21193;DHT22;10754;51.106;7.164;2023-09-19T10:38:00;22.50;99.90
21193;DHT22;10754;51.106;7.164;2023-09-19T10:40:27;22.50;99.90
21193;DHT22;10754;51.106;7.164;2023-09-19T10:43:01;22.70;99.90
21193;DHT22;10754;51.106;7.164;2023-09-19T10:45:34;22.90;99.90
21193;DHT22;10754;51.106;7.164;2023-09-19T10:48:01;23.20;99.90
21193;DHT22;10754;51.106;7.164;2023-09-19T10:50:42;23.50;99.90
21193;DHT22;10754;51.106;7.164;2023-09-19T10:53:11;23.30;99.90
21193;DHT22;10754;51.106;7.164;2023-09-19T10:55:38;23.60;99.90
21193;DHT22;10754;51.106;7.164;2023-09-19T10:58:05;23.70;99.90
21193;DHT22;10754;51.106;7.164;2023-09-19T11:00:59;24.00;99.90
21193;DHT22;10754;51.106;7.164;2023-09-19T11:03:35;24.00;99.90
21193;DHT22;10754;51.106;7.164;2023-09-19T11:09:03;24.20;99.90
21193;DHT22;10754;51.106;7.164;2023-09-19T11:16:41;24.60;99.90
21193;DHT22;10754;51.106;7.164;2023-09-19T11:30:47;24.50;99.90
21193;DHT22;10754;51.106;7.164;2023-09-19T11:33:22;24.40;99.90
21193;DHT22;10754;51.106;7.164;2023-09-19T11:36:04;24.30;99.90
21193;DHT22;10754;51.106;7.164;2023-09-19T11:46:20;24.40;99.90
21193;DHT22;10754;51.106;7.164;2023-09-19T11:48:48;25.00;99.90
21193;DHT22;10754;51.106;7.164;2023-09-19T11:51:16;24.60;99.90
21193;DHT22;10754;51.106;7.164;2023-09-19T11:53:48;25.00;99.90
21193;DHT22;10754;51.106;7.164;2023-09-19T11:56:21;26.20;99.90
21193;DHT22;10754;51.106;7.164;2023-09-19T11:58:56;25.70;99.90
21193;DHT22;10754;51.106;7.164;2023-09-19T12:01:28;25.60;99.90
21193;DHT22;10754;51.106;7.164;2023-09-19T12:03:56;25.40;99.90
21193;DHT22;10754;51.106;7.164;2023-09-19T12:06:24;25.20;99.90
21193;DHT22;10754;51.106;7.164;2023-09-19T12:08:49;25.10;99.90
21193;DHT22;10754;51.106;7.164;2023-09-19T12:11:17;25.50;99.90
21193;DHT22;10754;51.106;7.164;2023-09-19T12:13:44;26.30;99.90
21193;DHT22;10754;51.106;7.164;2023-09-19T12:16:18;26.30;99.90
21193;DHT22;10754;51.106;7.164;2023-09-19T12:18:47;26.60;99.90
21193;DHT22;10754;51.106;7.164;2023-09-19T12:21:29;26.30;99.90
21193;DHT22;10754;51.106;7.164;2023-09-19T12:26:30;26.40;99.90
21193;DHT22;10754;51.106;7.164;2023-09-19T12:29:02;27.10;99.90
21193;DHT22;10754;51.106;7.164;2023-09-19T12:31:30;27.20;99.90
21193;DHT22;10754;51.106;7.164;2023-09-19T12:34:01;27.40;99.90
21193;DHT22;10754;51.106;7.164;2023-09-19T12:36:27;27.60;99.90
21193;DHT22;10754;51.106;7.164;2023-09-19T12:38:59;27.80;99.90
21193;DHT22;10754;51.106;7.164;2023-09-19T12:41:27;27.90;99.90
21193;DHT22;10754;51.106;7.164;2023-09-19T12:43:53;28.20;99.90
21193;DHT22;10754;51.106;7.164;2023-09-19T12:46:23;28.40;99.90
21193;DHT22;10754;51.106;7.164;2023-09-19T12:49:17;28.40;99.90
21193;DHT22;10754;51.106;7.164;2023-09-19T12:51:43;28.50;99.90
21193;DHT22;10754;51.106;7.164;2023-09-19T12:54:09;28.30;99.90
21193;DHT22;10754;51.106;7.164;2023-09-19T12:56:43;28.30;99.90
21193;DHT22;10754;51.106;7.164;2023-09-19T12:59:12;28.40;99.90
21193;DHT22;10754;51.106;7.164;2023-09-19T13:01:39;28.30;99.90
21193;DHT22;10754;51.106;7.164;2023-09-19T13:04:21;28.10;99.90
21193;DHT22;10754;51.106;7.164;2023-09-19T13:06:55;28.20;99.90
21193;DHT22;10754;51.106;7.164;2023-09-19T13:09:26;28.20;99.90
21193;DHT22;10754;51.106;7.164;2023-09-19T13:12:00;27.60;99.90
21193;DHT22;10754;51.106;7.164;2023-09-19T13:14:28;27.60;99.90
21193;DHT22;10754;51.106;7.164;2023-09-19T13:19:48;26.60;99.90
21193;DHT22;10754;51.106;7.164;2023-09-19T13:22:45;26.70;99.90
21193;DHT22;10754;51.106;7.164;2023-09-19T13:25:16;26.70;99.90
21193;DHT22;10754;51.106;7.164;2023-09-19T13:27:53;26.80;99.90
21193;DHT22;10754;51.106;7.164;2023-09-19T13:30:27;26.70;99.90
21193;DHT22;10754;51.106;7.164;2023-09-19T13:33:11;26.10;99.90
21193;DHT22;10754;51.106;7.164;2023-09-19T13:35:39;25.90;99.90
21193;DHT22;10754;51.106;7.164;2023-09-19T13:38:07;25.60;99.90
21193;DHT22;10754;51.106;7.164;2023-09-19T13:40:40;25.60;99.90
21193;DHT22;10754;51.106;7.164;2023-09-19T13:43:09;25.40;99.90
21193;DHT22;10754;51.106;7.164;2023-09-19T13:45:34;25.40;99.90
21193;DHT22;10754;51.106;7.164;2023-09-19T13:48:00;25.40;99.90
21193;DHT22;10754;51.106;7.164;2023-09-19T13:50:25;25.70;99.90
21193;DHT22;10754;51.106;7.164;2023-09-19T13:52:52;25.50;99.90
21193;DHT22;10754;51.106;7.164;2023-09-19T13:55:19;25.10;99.90
21193;DHT22;10754;51.106;7.164;2023-09-19T13:57:46;25.30;99.90
21193;DHT22;10754;51.106;7.164;2023-09-19T14:00:12;25.20;99.90
21193;DHT22;10754;51.106;7.164;2023-09-19T14:02:41;25.40;99.90
21193;DHT22;10754;51.106;7.164;2023-09-19T14:05:09;25.80;99.90
21193;DHT22;10754;51.106;7.164;2023-09-19T14:07:37;25.50;99.90
21193;DHT22;10754;51.106;7.164;2023-09-19T14:10:03;25.30;99.90
21193;DHT22;10754;51.106;7.164;2023-09-19T14:12:33;25.30;99.90
21193;DHT22;10754;51.106;7.164;2023-09-19T14:14:59;25.00;99.90
21193;DHT22;10754;51.106;7.164;2023-09-19T14:17:25;25.60;99.90
21193;DHT22;10754;51.106;7.164;2023-09-19T14:19:52;24.90;99.90
21193;DHT22;10754;51.106;7.164;2023-09-19T14:22:17;24.70;99.90
21193;DHT22;10754;51.106;7.164;2023-09-19T14:24:43;24.80;99.90
21193;DHT22;10754;51.106;7.164;2023-09-19T14:27:09;24.60;99.90
21193;DHT22;10754;51.106;7.164;2023-09-19T14:29:35;24.50;99.90
21193;DHT22;10754;51.106;7.164;2023-09-19T14:32:00;24.60;99.90
21193;DHT22;10754;51.106;7.164;2023-09-19T14:34:26;24.40;99.90
21193;DHT22;10754;51.106;7.164;2023-09-19T14:36:51;24.60;99.90
21193;DHT22;10754;51.106;7.164;2023-09-19T14:39:17;24.00;99.90
21193;DHT22;10754;51.106;7.164;2023-09-19T14:41:42;24.10;99.90
21193;DHT22;10754;51.106;7.164;2023-09-19T14:44:08;24.20;99.90
21193;DHT22;10754;51.106;7.164;2023-09-19T14:46:35;24.40;99.90
21193;DHT22;10754;51.106;7.164;2023-09-19T14:49:01;24.40;99.90
21193;DHT22;10754;51.106;7.164;2023-09-19T14:51:30;24.20;99.90
21193;DHT22;10754;51.106;7.164;2023-09-19T14:53:56;24.00;99.90
21193;DHT22;10754;51.106;7.164;2023-09-19T14:56:22;23.90;99.90
21193;DHT22;10754;51.106;7.164;2023-09-19T14:58:49;23.80;99.90
21193;DHT22;10754;51.106;7.164;2023-09-19T15:01:14;23.70;99.90
21193;DHT22;10754;51.106;7.164;2023-09-19T15:03:41;23.90;99.90
21193;DHT22;10754;51.106;7.164;2023-09-19T15:06:11;23.60;99.90
21193;DHT22;10754;51.106;7.164;2023-09-19T15:08:41;23.90;99.90
21193;DHT22;10754;51.106;7.164;2023-09-19T15:11:11;23.80;99.90
21193;DHT22;10754;51.106;7.164;2023-09-19T15:13:37;23.70;99.90
21193;DHT22;10754;51.106;7.164;2023-09-19T15:16:05;23.50;99.90
21193;DHT22;10754;51.106;7.164;2023-09-19T15:18:34;23.30;99.90
21193;DHT22;10754;51.106;7.164;2023-09-19T15:21:03;23.60;99.90
21193;DHT22;10754;51.106;7.164;2023-09-19T15:23:30;23.60;99.90
21193;DHT22;10754;51.106;7.164;2023-09-19T15:25:56;23.30;99.90
21193;DHT22;10754;51.106;7.164;2023-09-19T15:28:22;23.70;99.90
21193;DHT22;10754;51.106;7.164;2023-09-19T15:30:49;23.90;99.90
21193;DHT22;10754;51.106;7.164;2023-09-19T15:33:14;23.90;99.90
21193;DHT22;10754;51.106;7.164;2023-09-19T15:35:40;24.00;99.90
21193;DHT22;10754;51.106;7.164;2023-09-19T15:38:06;23.60;99.90
21193;DHT22;10754;51.106;7.164;2023-09-19T15:40:33;23.40;99.90
21193;DHT22;10754;51.106;7.164;2023-09-19T15:42:59;23.30;99.90
21193;DHT22;10754;51.106;7.164;2023-09-19T15:45:26;23.30;99.90
21193;DHT22;10754;51.106;7.164;2023-09-19T15:47:52;23.10;99.90
21193;DHT22;10754;51.106;7.164;2023-09-19T15:50:18;23.00;99.90
21193;DHT22;10754;51.106;7.164;2023-09-19T15:52:44;23.20;99.90
21193;DHT22;10754;51.106;7.164;2023-09-19T15:55:09;23.00;99.90
21193;DHT22;10754;51.106;7.164;2023-09-19T15:57:38;23.30;99.90
21193;DHT22;10754;51.106;7.164;2023-09-19T16:00:05;23.30;99.90
21193;DHT22;10754;51.106;7.164;2023-09-19T16:02:36;23.20;99.90
21193;DHT22;10754;51.106;7.164;2023-09-19T16:05:01;23.30;99.90
21193;DHT22;10754;51.106;7.164;2023-09-19T16:07:32;23.20;99.90
21193;DHT22;10754;51.106;7.164;2023-09-19T16:09:58;23.10;99.90
21193;DHT22;10754;51.106;7.164;2023-09-19T16:12:25;23.00;99.90
21193;DHT22;10754;51.106;7.164;2023-09-19T16:14:51;23.00;99.90
21193;DHT22;10754;51.106;7.164;2023-09-19T16:17:16;23.10;99.90
21193;DHT22;10754;51.106;7.164;2023-09-19T16:19:42;23.00;99.90
21193;DHT22;10754;51.106;7.164;2023-09-19T16:22:09;23.20;99.90
21193;DHT22;10754;51.106;7.164;2023-09-19T16:24:34;23.20;99.90
21193;DHT22;10754;51.106;7.164;2023-09-19T16:27:00;23.20;99.90
21193;DHT22;10754;51.106;7.164;2023-09-19T16:29:25;23.10;99.90
21193;DHT22;10754;51.106;7.164;2023-09-19T16:31:52;23.20;99.90
21193;DHT22;10754;51.106;7.164;2023-09-19T16:34:18;23.00;99.90
21193;DHT22;10754;51.106;7.164;2023-09-19T16:36:43;22.90;99.90